createdAt,value
2023-01-19T00:00:56.651Z,0.39
2023-01-19T00:03:23.849Z,0.35
2023-01-19T00:05:51.646Z,0.37
2023-01-19T00:08:18.906Z,0.40
2023-01-19T00:10:46.925Z,0.33
2023-01-19T00:13:14.817Z,0.33
2023-01-19T00:15:41.875Z,0.32
2023-01-19T00:18:10.610Z,0.32
2023-01-19T00:20:41.608Z,0.35
2023-01-19T00:23:09.600Z,0.34
2023-01-19T00:25:43.116Z,0.36
2023-01-19T00:28:11.118Z,0.32
2023-01-19T00:30:38.634Z,0.24
2023-01-19T00:33:05.682Z,0.27
2023-01-19T00:35:32.793Z,0.29
2023-01-19T00:38:00.132Z,0.30
2023-01-19T00:40:27.949Z,0.30
2023-01-19T00:42:55.368Z,0.30
2023-01-19T00:45:24.244Z,0.32
2023-01-19T00:47:57.440Z,0.25
2023-01-19T00:50:26.106Z,0.29
2023-01-19T00:52:54.018Z,0.26
2023-01-19T00:55:21.333Z,0.23
2023-01-19T00:57:49.016Z,0.22
2023-01-19T01:00:18.092Z,0.21
2023-01-19T01:02:45.828Z,0.22
2023-01-19T01:05:13.699Z,0.22
2023-01-19T01:07:41.454Z,0.20
2023-01-19T01:10:10.137Z,0.25
2023-01-19T01:12:38.138Z,0.21
2023-01-19T01:15:09.173Z,0.20
2023-01-19T01:17:36.822Z,0.27
2023-01-19T01:20:04.994Z,0.30
2023-01-19T01:22:32.033Z,0.23
2023-01-19T01:24:59.392Z,0.25
2023-01-19T01:27:26.939Z,0.26
2023-01-19T01:29:53.945Z,0.31
2023-01-19T01:32:21.259Z,0.29
2023-01-19T01:34:48.841Z,0.27
2023-01-19T01:37:16.084Z,0.21
2023-01-19T01:39:43.213Z,0.23
2023-01-19T01:42:16.087Z,0.25
2023-01-19T01:45:00.757Z,0.24
2023-01-19T01:47:37.504Z,0.28
2023-01-19T01:50:07.779Z,0.32
2023-01-19T01:52:38.111Z,0.29
2023-01-19T01:55:07.399Z,0.31
2023-01-19T01:57:39.568Z,0.32
2023-01-19T02:00:07.037Z,0.35
2023-01-19T02:02:52.342Z,0.36
2023-01-19T02:05:30.047Z,0.38
2023-01-19T02:08:23.587Z,0.40
2023-01-19T02:11:09.656Z,0.42
2023-01-19T02:13:39.320Z,0.44
2023-01-19T02:16:08.226Z,0.41
2023-01-19T02:18:36.050Z,0.39
2023-01-19T02:21:06.016Z,0.42
2023-01-19T02:23:37.719Z,0.41
2023-01-19T02:26:07.502Z,0.41
2023-01-19T02:28:35.060Z,0.45
2023-01-19T02:31:04.358Z,0.45
2023-01-19T02:33:33.908Z,0.44
2023-01-19T02:36:01.005Z,0.44
2023-01-19T02:38:38.271Z,0.45
2023-01-19T02:41:08.674Z,0.46
2023-01-19T02:43:37.764Z,0.40
2023-01-19T02:46:04.844Z,0.41
2023-01-19T02:48:32.265Z,0.36
2023-01-19T02:51:06.845Z,0.38
2023-01-19T02:53:52.217Z,0.31
2023-01-19T02:56:37.477Z,0.30
2023-01-19T02:59:23.713Z,0.21
2023-01-19T03:02:07.237Z,0.22
2023-01-19T03:04:37.153Z,0.17
2023-01-19T03:07:16.822Z,0.22
2023-01-19T03:09:50.367Z,0.15
2023-01-19T03:12:25.729Z,0.19
2023-01-19T03:14:56.343Z,0.15
2023-01-19T03:17:23.872Z,0.14
2023-01-19T03:19:51.547Z,0.13
2023-01-19T03:22:25.588Z,0.14
2023-01-19T03:24:55.409Z,0.18
2023-01-19T03:27:31.508Z,0.14
2023-01-19T03:30:01.530Z,0.13
2023-01-19T03:32:35.060Z,0.11
2023-01-19T03:35:04.447Z,0.08
2023-01-19T03:37:32.406Z,0.13
2023-01-19T03:40:00.186Z,0.12
2023-01-19T03:42:28.641Z,0.12
2023-01-19T03:44:56.746Z,0.11
2023-01-19T03:47:24.239Z,0.20
2023-01-19T03:49:53.235Z,0.17
2023-01-19T03:52:34.049Z,0.18
2023-01-19T03:55:02.271Z,0.16
2023-01-19T03:57:29.566Z,0.14
2023-01-19T03:59:57.405Z,0.16
2023-01-19T04:02:25.144Z,0.21
2023-01-19T04:04:52.511Z,0.22
2023-01-19T04:07:19.731Z,0.22
2023-01-19T04:09:48.070Z,0.20
2023-01-19T04:12:15.923Z,0.23
2023-01-19T04:14:42.962Z,0.24
2023-01-19T04:17:11.002Z,0.33
2023-01-19T04:19:38.442Z,0.33
2023-01-19T04:22:05.467Z,0.41
2023-01-19T04:24:32.521Z,0.42
2023-01-19T04:26:59.763Z,0.48
2023-01-19T04:29:26.960Z,0.50
2023-01-19T04:31:54.949Z,0.52
2023-01-19T04:34:22.241Z,0.61
2023-01-19T04:36:51.492Z,0.63
2023-01-19T04:39:18.625Z,0.66
2023-01-19T04:41:45.864Z,0.60
2023-01-19T04:44:14.206Z,0.64
2023-01-19T04:46:41.785Z,0.66
2023-01-19T04:49:09.444Z,0.64
2023-01-19T04:51:37.980Z,0.64
2023-01-19T04:54:05.295Z,0.70
2023-01-19T04:56:37.405Z,0.71
2023-01-19T04:59:04.633Z,0.73
2023-01-19T05:01:31.958Z,0.75
2023-01-19T05:03:59.687Z,0.85
2023-01-19T05:11:55.469Z,0.80
2023-01-19T05:14:23.253Z,0.78
2023-01-19T05:17:00.008Z,0.73
2023-01-19T05:19:29.524Z,0.69
2023-01-19T05:21:57.155Z,0.70
2023-01-19T05:24:27.637Z,0.72
2023-01-19T05:29:37.101Z,0.79
2023-01-19T05:32:15.380Z,0.82
2023-01-19T05:34:53.469Z,0.83
2023-01-19T05:37:21.886Z,0.86
2023-01-19T05:39:53.740Z,0.96
2023-01-19T05:42:21.567Z,0.95
2023-01-19T05:44:49.964Z,1.01
2023-01-19T05:47:17.402Z,1.06
2023-01-19T05:49:44.937Z,0.99
2023-01-19T05:52:30.988Z,1.04
2023-01-19T05:55:26.069Z,1.10
2023-01-19T05:57:58.876Z,1.09
2023-01-19T06:00:32.560Z,1.15
2023-01-19T06:03:01.337Z,1.18
2023-01-19T06:05:34.332Z,1.17
2023-01-19T06:08:04.272Z,1.22
2023-01-19T06:10:31.497Z,1.29
2023-01-19T06:13:02.466Z,1.26
2023-01-19T06:15:30.170Z,1.26
2023-01-19T06:17:57.414Z,1.29
2023-01-19T06:20:24.602Z,1.24
2023-01-19T06:23:01.952Z,1.26
2023-01-19T06:25:29.592Z,1.24
2023-01-19T06:27:58.910Z,1.24
2023-01-19T06:30:26.277Z,1.21
2023-01-19T06:32:53.793Z,1.24
2023-01-19T06:35:24.797Z,1.25
2023-01-19T06:37:53.598Z,1.25
2023-01-19T06:43:02.560Z,1.27
2023-01-19T06:45:29.924Z,1.24
2023-01-19T06:50:38.489Z,1.25
2023-01-19T06:58:31.525Z,1.40
2023-01-19T07:01:12.138Z,1.34
2023-01-19T07:03:48.979Z,1.40
2023-01-19T07:11:43.120Z,1.47
2023-01-19T07:19:45.000Z,1.47
2023-01-19T07:27:34.374Z,1.53
2023-01-19T07:32:45.753Z,1.43
2023-01-19T07:35:13.014Z,1.44
2023-01-19T07:37:42.517Z,1.53
2023-01-19T07:40:10.011Z,1.50
2023-01-19T07:42:38.907Z,1.52
2023-01-19T07:45:07.627Z,1.47
2023-01-19T07:47:35.438Z,1.47
2023-01-19T07:50:07.557Z,1.48
2023-01-19T07:52:35.680Z,1.50
2023-01-19T07:55:05.317Z,1.53
2023-01-19T07:57:37.419Z,1.59
2023-01-19T08:00:06.635Z,1.53
2023-01-19T08:02:44.385Z,1.51
2023-01-19T08:05:11.835Z,1.52
2023-01-19T08:07:41.149Z,1.58
2023-01-19T08:10:17.860Z,1.60
2023-01-19T08:12:47.227Z,1.56
2023-01-19T08:18:03.193Z,1.65
2023-01-19T08:20:30.948Z,1.63
2023-01-19T08:25:46.841Z,1.69
2023-01-19T08:39:07.098Z,1.75
2023-01-19T09:00:43.947Z,1.74
2023-01-19T09:19:32.904Z,1.82
2023-01-19T09:57:29.852Z,1.64
